createdAt,value
2023-07-21T04:02:35.890Z,97954.94
2023-07-21T04:05:02.615Z,97952.84
2023-07-21T04:07:29.149Z,97948.16
2023-07-21T04:09:57.093Z,97946.34
2023-07-21T04:12:23.583Z,97948.19
2023-07-21T04:14:50.045Z,97945.34
2023-07-21T04:17:16.873Z,97959.22
2023-07-21T04:19:43.524Z,97955.66
2023-07-21T04:22:10.066Z,97950.28
2023-07-21T04:24:36.930Z,97939.44
2023-07-21T04:27:03.853Z,97939.44
2023-07-21T04:29:36.323Z,97941.31
2023-07-21T04:32:03.924Z,97938.81
2023-07-21T04:34:31.837Z,97946.50
2023-07-21T04:36:58.573Z,97933.47
2023-07-21T04:39:25.105Z,97927.28
2023-07-21T04:41:51.662Z,97931.28
2023-07-21T04:44:18.153Z,97934.63
2023-07-21T04:46:44.707Z,97930.22
2023-07-21T04:49:14.398Z,97926.94
2023-07-21T04:51:40.916Z,97924.38
2023-07-21T04:54:08.409Z,97925.06
2023-07-21T04:56:34.871Z,97927.63
2023-07-21T04:59:01.341Z,97925.03
2023-07-21T05:01:27.901Z,97928.66
2023-07-21T05:03:54.461Z,97931.56
2023-07-21T05:06:21.049Z,97929.00
2023-07-21T05:08:47.525Z,97917.63
2023-07-21T05:11:14.005Z,97930.78
2023-07-21T05:13:40.493Z,97927.03
2023-07-21T05:16:07.198Z,97924.03
2023-07-21T05:18:34.621Z,97931.47
2023-07-21T05:21:01.067Z,97923.19
2023-07-21T05:23:27.538Z,97921.38
2023-07-21T05:26:03.561Z,97923.59
2023-07-21T05:28:30.475Z,97922.09
2023-07-21T05:30:58.205Z,97919.41
2023-07-21T05:33:24.957Z,97925.53
2023-07-21T05:35:51.528Z,97924.22
2023-07-21T05:38:18.060Z,97928.34
2023-07-21T05:40:44.570Z,97920.50
2023-07-21T05:43:11.157Z,97922.19
2023-07-21T05:45:39.375Z,97916.97
2023-07-21T05:48:06.733Z,97908.00
2023-07-21T05:50:37.247Z,97904.66
2023-07-21T05:53:03.705Z,97909.69
2023-07-21T05:55:30.188Z,97909.84
2023-07-21T05:57:56.750Z,97901.91
2023-07-21T06:00:23.208Z,97902.56
2023-07-21T06:02:49.815Z,97897.75
2023-07-21T06:05:16.506Z,97896.78
2023-07-21T06:07:45.149Z,97896.06
2023-07-21T06:10:12.467Z,97886.13
2023-07-21T06:12:39.942Z,97886.88
2023-07-21T06:15:07.922Z,97874.72
2023-07-21T06:17:34.414Z,97886.44
2023-07-21T06:20:01.364Z,97882.59
2023-07-21T06:22:28.086Z,97874.06
2023-07-21T06:24:54.640Z,97878.47
2023-07-21T06:27:21.089Z,97870.22
2023-07-21T06:29:47.558Z,97872.44
2023-07-21T06:32:13.952Z,97871.91
2023-07-21T06:34:40.397Z,97873.78
2023-07-21T06:37:06.920Z,97874.47
2023-07-21T06:39:34.078Z,97864.47
2023-07-21T06:42:00.631Z,97869.81
2023-07-21T06:44:27.159Z,97859.91
2023-07-21T06:46:53.943Z,97864.16
2023-07-21T06:49:20.903Z,97868.13
2023-07-21T06:51:47.359Z,97862.47
2023-07-21T06:54:13.821Z,97859.69
2023-07-21T06:56:40.356Z,97855.38
2023-07-21T06:59:06.834Z,97863.59
2023-07-21T07:01:33.410Z,97857.56
2023-07-21T07:04:00.934Z,97858.44
2023-07-21T07:06:29.812Z,97858.44
2023-07-21T07:08:59.763Z,97865.38
2023-07-21T07:11:26.546Z,97864.25
2023-07-21T07:13:53.208Z,97858.78
2023-07-21T07:16:19.680Z,97865.94
2023-07-21T07:18:46.254Z,97867.69
2023-07-21T07:21:14.224Z,97867.63
2023-07-21T07:23:40.747Z,97868.91
2023-07-21T07:26:07.678Z,97868.25
2023-07-21T07:28:34.156Z,97866.09
2023-07-21T07:31:05.241Z,97864.00
2023-07-21T07:33:32.879Z,97857.81
2023-07-21T07:36:00.795Z,97859.44
2023-07-21T07:38:29.641Z,97854.97
2023-07-21T07:41:04.226Z,97857.09
2023-07-21T07:43:30.933Z,97856.06
2023-07-21T07:46:01.028Z,97856.03
2023-07-21T07:48:27.736Z,97850.75
2023-07-21T07:50:54.777Z,97853.34
2023-07-21T07:53:22.153Z,97851.38
2023-07-21T07:55:48.691Z,97849.41
2023-07-21T07:58:15.270Z,97854.31
2023-07-21T08:00:48.777Z,97855.53
2023-07-21T08:03:16.097Z,97847.56
2023-07-21T08:05:42.672Z,97846.28
2023-07-21T08:08:13.736Z,97835.44
2023-07-21T08:10:42.958Z,97838.91
2023-07-21T08:13:09.796Z,97838.63
2023-07-21T08:15:36.746Z,97834.09
2023-07-21T08:18:04.343Z,97827.72
2023-07-21T08:20:31.027Z,97824.88
2023-07-21T08:22:57.485Z,97817.81
2023-07-21T08:25:24.169Z,97816.75
2023-07-21T08:27:53.677Z,97818.59
2023-07-21T08:30:20.863Z,97819.72
2023-07-21T08:32:47.406Z,97825.53
2023-07-21T08:35:13.915Z,97820.25
2023-07-21T08:37:40.484Z,97827.06
2023-07-21T08:40:08.429Z,97819.53
2023-07-21T08:42:36.433Z,97824.59
2023-07-21T08:45:08.358Z,97825.13
2023-07-21T08:47:36.075Z,97826.78
2023-07-21T08:50:05.501Z,97822.91
2023-07-21T08:52:32.791Z,97822.59
2023-07-21T08:54:59.285Z,97820.53
2023-07-21T08:57:25.862Z,97833.44
2023-07-21T08:59:55.723Z,97828.34
2023-07-21T09:02:48.081Z,97825.13
2023-07-21T09:05:19.007Z,97826.38
2023-07-21T09:07:49.558Z,97816.31
2023-07-21T09:10:31.469Z,97819.81
2023-07-21T09:12:58.681Z,97825.38
2023-07-21T09:15:25.289Z,97813.56
2023-07-21T09:17:52.085Z,97810.72
2023-07-21T09:20:21.476Z,97802.72
2023-07-21T09:22:49.490Z,97806.56
2023-07-21T09:25:23.711Z,97801.06
2023-07-21T09:27:58.826Z,97807.00
2023-07-21T09:30:25.472Z,97807.47
2023-07-21T09:32:57.092Z,97809.03
2023-07-21T09:35:23.860Z,97811.31
2023-07-21T09:37:52.281Z,97807.78
2023-07-21T09:40:28.111Z,97806.91
2023-07-21T09:42:54.735Z,97797.31
2023-07-21T09:45:22.276Z,97808.28
2023-07-21T09:47:50.052Z,97805.88
2023-07-21T09:50:16.690Z,97802.13
2023-07-21T09:52:47.568Z,97804.03
2023-07-21T09:55:17.760Z,97800.25
2023-07-21T09:57:50.108Z,97799.53
2023-07-21T10:00:18.696Z,97807.13
2023-07-21T10:02:48.231Z,97802.00
2023-07-21T10:05:15.453Z,97804.44
2023-07-21T10:07:47.214Z,97796.59
2023-07-21T10:10:14.734Z,97789.72
2023-07-21T10:12:47.918Z,97786.66
2023-07-21T10:15:16.386Z,97781.84
2023-07-21T10:17:45.074Z,97781.47
2023-07-21T10:20:13.109Z,97776.31
2023-07-21T10:22:39.602Z,97772.56
2023-07-21T10:25:06.288Z,97767.94
2023-07-21T10:27:32.730Z,97773.25
2023-07-21T10:30:22.165Z,97777.56
2023-07-21T10:32:52.240Z,97777.78
2023-07-21T10:35:40.667Z,97770.81
2023-07-21T10:38:16.027Z,97768.28
2023-07-21T10:40:43.540Z,97775.94
2023-07-21T10:43:10.451Z,97770.47
2023-07-21T10:45:38.491Z,97769.00
2023-07-21T10:48:18.807Z,97770.63
2023-07-21T10:50:52.524Z,97763.16
2023-07-21T10:53:19.433Z,97763.47
2023-07-21T10:55:46.593Z,97758.00
2023-07-21T10:58:14.921Z,97759.00
2023-07-21T11:00:52.476Z,97757.44
2023-07-21T11:03:19.628Z,97749.63
2023-07-21T11:05:46.375Z,97754.53
2023-07-21T11:08:14.178Z,97749.03
2023-07-21T11:10:43.172Z,97740.47
2023-07-21T11:13:10.019Z,97744.66
2023-07-21T11:15:36.666Z,97744.66
2023-07-21T11:18:05.074Z,97745.25
2023-07-21T11:20:31.721Z,97740.53
2023-07-21T11:23:00.086Z,97736.47
2023-07-21T11:25:26.715Z,97739.38
2023-07-21T11:27:54.332Z,97739.53
2023-07-21T11:30:21.280Z,97736.13
2023-07-21T11:32:48.566Z,97735.53
2023-07-21T11:35:15.237Z,97728.31
2023-07-21T11:37:46.729Z,97726.59
2023-07-21T11:40:19.890Z,97730.91
2023-07-21T11:42:48.890Z,97729.16
2023-07-21T11:45:41.279Z,97728.88
2023-07-21T11:48:20.607Z,97731.19
2023-07-21T11:50:55.495Z,97727.16
2023-07-21T11:53:24.457Z,97728.78
2023-07-21T11:55:51.394Z,97719.28
2023-07-21T11:58:17.916Z,97721.16
2023-07-21T12:00:45.021Z,97732.09
2023-07-21T12:03:11.777Z,97734.97
2023-07-21T12:05:38.451Z,97733.41
2023-07-21T12:08:05.045Z,97735.97
2023-07-21T12:10:31.589Z,97737.41
2023-07-21T12:12:58.503Z,97740.25
2023-07-21T12:15:30.529Z,97750.41
2023-07-21T12:17:57.362Z,97759.44
2023-07-21T12:20:24.101Z,97757.38
2023-07-21T12:22:50.557Z,97760.50
2023-07-21T12:25:17.096Z,97765.22
2023-07-21T12:27:43.704Z,97759.53
2023-07-21T12:30:10.943Z,97766.69
2023-07-21T12:32:37.871Z,97766.16
2023-07-21T12:35:06.289Z,97754.13
2023-07-21T12:37:33.918Z,97754.41
2023-07-21T12:40:01.316Z,97747.84
2023-07-21T12:42:29.569Z,97748.06
2023-07-21T12:44:56.285Z,97742.19
2023-07-21T12:47:22.698Z,97743.25
2023-07-21T12:49:49.197Z,97739.09
2023-07-21T12:52:15.581Z,97741.88
2023-07-21T12:54:42.382Z,97753.53
2023-07-21T12:57:09.323Z,97755.31
2023-07-21T12:59:35.738Z,97751.09
2023-07-21T13:02:02.277Z,97755.03
2023-07-21T13:04:28.866Z,97750.97
2023-07-21T13:06:55.432Z,97743.75
2023-07-21T13:09:22.752Z,97750.34
2023-07-21T13:11:51.662Z,97757.25
2023-07-21T13:14:19.522Z,97758.41
2023-07-21T13:16:46.055Z,97761.72
2023-07-21T13:19:13.042Z,97758.94
2023-07-21T13:21:39.776Z,97764.78
2023-07-21T13:24:06.253Z,97759.94
2023-07-21T13:26:34.769Z,97762.22
2023-07-21T13:29:01.273Z,97751.19
2023-07-21T13:31:27.731Z,97747.03
2023-07-21T13:33:54.243Z,97741.34
2023-07-21T13:36:20.727Z,97744.53
2023-07-21T13:38:47.123Z,97740.59
2023-07-21T13:41:13.558Z,97739.22
2023-07-21T13:43:40.006Z,97737.88
2023-07-21T13:46:06.485Z,97734.66
2023-07-21T13:48:33.108Z,97736.41
2023-07-21T13:50:59.621Z,97734.88
2023-07-21T13:53:26.077Z,97735.72
2023-07-21T13:55:52.682Z,97735.50
2023-07-21T13:58:19.154Z,97734.56
2023-07-21T14:00:45.732Z,97735.00
2023-07-21T14:03:12.280Z,97730.78
2023-07-21T14:05:38.809Z,97733.59
2023-07-21T14:08:05.822Z,97732.78
2023-07-21T14:10:32.542Z,97732.16
2023-07-21T14:12:58.947Z,97740.47
2023-07-21T14:15:25.586Z,97733.41
2023-07-21T14:17:52.410Z,97733.59
2023-07-21T14:20:19.359Z,97728.03
2023-07-21T14:22:45.878Z,97720.84
2023-07-21T14:25:12.459Z,97725.03
2023-07-21T14:27:40.557Z,97719.28
2023-07-21T14:30:08.886Z,97716.41
2023-07-21T14:32:35.487Z,97714.31
2023-07-21T14:35:02.002Z,97711.94
2023-07-21T14:37:28.604Z,97718.94
2023-07-21T14:39:55.018Z,97720.66
2023-07-21T14:42:21.435Z,97719.91
2023-07-21T14:44:47.982Z,97721.66
2023-07-21T14:47:14.805Z,97711.94
2023-07-21T14:49:41.432Z,97713.03
2023-07-21T14:52:08.515Z,97711.66
2023-07-21T14:54:35.034Z,97702.16
2023-07-21T14:57:01.517Z,97709.66
2023-07-21T14:59:27.996Z,97701.19
2023-07-21T15:01:54.445Z,97697.28
2023-07-21T15:04:22.701Z,97692.75
2023-07-21T15:06:49.286Z,97684.59
2023-07-21T15:09:16.065Z,97688.78
2023-07-21T15:11:42.652Z,97689.66
2023-07-21T15:14:09.145Z,97676.13
2023-07-21T15:16:35.660Z,97679.31
2023-07-21T15:19:02.184Z,97681.69
2023-07-21T15:21:28.647Z,97681.69
2023-07-21T15:23:55.494Z,97686.59
2023-07-21T15:26:22.007Z,97676.97
2023-07-21T15:28:49.485Z,97678.50
2023-07-21T15:31:16.041Z,97680.88
2023-07-21T15:33:43.637Z,97667.78
2023-07-21T15:36:10.144Z,97671.38
2023-07-21T15:38:36.563Z,97669.84
2023-07-21T15:41:02.974Z,97664.06
2023-07-21T15:43:29.383Z,97665.06
2023-07-21T15:45:55.872Z,97669.41
2023-07-21T15:48:22.445Z,97668.50
2023-07-21T15:50:48.894Z,97664.59
2023-07-21T15:53:15.358Z,97672.75
2023-07-21T15:55:41.772Z,97675.66
2023-07-21T15:58:08.183Z,97666.53
2023-07-21T16:00:34.569Z,97662.97
2023-07-21T16:03:01.140Z,97658.88
2023-07-21T16:05:27.909Z,97653.88
2023-07-21T16:07:54.421Z,97659.69
2023-07-21T16:10:20.917Z,97663.81
2023-07-21T16:12:47.410Z,97658.09
2023-07-21T16:15:14.341Z,97647.88
2023-07-21T16:17:40.960Z,97654.94
2023-07-21T16:20:12.277Z,97646.59
2023-07-21T16:22:40.499Z,97660.19
2023-07-21T16:25:08.450Z,97655.53
2023-07-21T16:27:35.082Z,97662.72
2023-07-21T16:30:01.725Z,97660.84
2023-07-21T16:32:28.309Z,97663.00
2023-07-21T16:34:54.972Z,97658.84
2023-07-21T16:37:21.432Z,97666.03
2023-07-21T16:39:51.127Z,97667.75
2023-07-21T16:42:18.445Z,97668.63
2023-07-21T16:44:44.867Z,97669.06
2023-07-21T16:47:11.333Z,97682.44
2023-07-21T16:49:37.872Z,97686.47
2023-07-21T16:52:04.794Z,97682.59
2023-07-21T16:54:31.272Z,97690.44
2023-07-21T16:56:57.877Z,97690.06
2023-07-21T16:59:24.380Z,97694.47
2023-07-21T17:01:51.028Z,97700.59
2023-07-21T17:04:17.523Z,97707.53
2023-07-21T17:06:43.939Z,97704.50
2023-07-21T17:09:10.402Z,97701.03
2023-07-21T17:11:36.963Z,97701.06
2023-07-21T17:14:03.582Z,97702.31
2023-07-21T17:16:32.699Z,97709.91
2023-07-21T17:18:59.660Z,97703.75
2023-07-21T17:21:26.518Z,97711.31
2023-07-21T17:23:53.384Z,97704.00
2023-07-21T17:26:19.932Z,97705.13
2023-07-21T17:28:46.475Z,97699.56
2023-07-21T17:31:13.014Z,97702.66
2023-07-21T17:33:39.616Z,97711.13
2023-07-21T17:36:06.097Z,97702.28
2023-07-21T17:38:33.798Z,97695.69
2023-07-21T17:41:02.577Z,97705.06
2023-07-21T17:43:31.163Z,97709.53
2023-07-21T17:45:59.986Z,97703.44
2023-07-21T17:48:26.506Z,97708.28
2023-07-21T17:50:54.557Z,97704.91
2023-07-21T17:53:21.871Z,97702.63
2023-07-21T17:55:48.468Z,97710.16
2023-07-21T17:58:15.884Z,97719.34
2023-07-21T18:00:42.521Z,97714.69
2023-07-21T18:03:10.042Z,97714.91
2023-07-21T18:05:37.841Z,97707.94
2023-07-21T18:08:05.598Z,97721.34
2023-07-21T18:10:33.132Z,97712.75
2023-07-21T18:12:59.569Z,97714.84
2023-07-21T18:15:28.697Z,97723.09
2023-07-21T18:17:55.180Z,97721.03
2023-07-21T18:20:21.667Z,97725.19
2023-07-21T18:22:48.161Z,97724.94
2023-07-21T18:25:16.368Z,97727.44
2023-07-21T18:27:43.428Z,97732.28
2023-07-21T18:30:11.513Z,97728.78
2023-07-21T18:32:38.561Z,97730.31
2023-07-21T18:35:06.108Z,97733.81
2023-07-21T18:37:32.656Z,97725.03
2023-07-21T18:40:02.674Z,97730.31
2023-07-21T18:42:29.581Z,97721.28
2023-07-21T18:44:56.016Z,97722.22
2023-07-21T18:47:22.585Z,97722.63
2023-07-21T18:49:49.109Z,97732.00
2023-07-21T18:52:15.828Z,97731.28
2023-07-21T18:54:42.349Z,97725.81
2023-07-21T18:57:08.842Z,97742.50
2023-07-21T18:59:35.304Z,97745.47
2023-07-21T19:02:02.642Z,97747.03
2023-07-21T19:04:29.744Z,97757.34
2023-07-21T19:06:56.137Z,97756.22
2023-07-21T19:09:23.021Z,97766.81
2023-07-21T19:11:52.537Z,97766.09
2023-07-21T19:14:19.896Z,97768.16
2023-07-21T19:16:46.462Z,97772.19
2023-07-21T19:19:12.927Z,97786.44
2023-07-21T19:21:39.349Z,97789.69
2023-07-21T19:24:05.984Z,97802.59
2023-07-21T19:26:32.433Z,97801.53
2023-07-21T19:28:58.875Z,97813.44
2023-07-21T19:31:25.531Z,97833.97
2023-07-21T19:33:52.183Z,97835.16
2023-07-21T19:36:18.685Z,97842.59
2023-07-21T19:38:45.132Z,97845.06
2023-07-21T19:41:14.607Z,97855.81
2023-07-21T19:43:41.075Z,97852.53
2023-07-21T19:46:13.311Z,97855.13
2023-07-21T19:48:40.001Z,97864.94
2023-07-21T19:51:14.243Z,97877.66
2023-07-21T19:53:42.071Z,97878.28
2023-07-21T19:56:16.039Z,97869.59
2023-07-21T19:58:42.814Z,97866.38
